Time;durP1;ratioP1;P1;durP2;ratioP2;P2;SDS_P1;SDS_P2;PMS_P1;PMS_P2;Temp;Humidity;BMP_temperature;BMP_pressure;BME280_temperature;BME280_humidity;BME280_pressure;Samples;Min_cycle;Max_cycle;Signal;HPM_P1;HPM_P2
2021/06/24 00:01:26;;;;;;;3.80;2.15;;;20.90;59.40;;;;;;5052979;28;20262;-65
2021/06/24 00:03:52;;;;;;;1.75;1.65;;;20.90;59.30;;;;;;5052347;28;20181;-65
2021/06/24 00:06:17;;;;;;;1.92;1.73;;;20.90;59.40;;;;;;5053545;28;20254;-65
2021/06/24 00:08:43;;;;;;;2.88;2.00;;;20.90;59.40;;;;;;5053152;28;20618;-65
2021/06/24 00:11:10;;;;;;;4.10;1.75;;;20.90;59.40;;;;;;5052489;28;20182;-65
2021/06/24 00:13:36;;;;;;;2.50;1.95;;;20.90;59.30;;;;;;5052548;28;20666;-65
2021/06/24 00:16:01;;;;;;;4.00;1.90;;;20.90;59.50;;;;;;5053097;28;20206;-66
2021/06/24 00:18:27;;;;;;;2.55;1.98;;;20.90;59.40;;;;;;5052542;28;20179;-65
2021/06/24 00:20:52;;;;;;;1.92;1.75;;;20.90;59.40;;;;;;5052649;28;20305;-65
2021/06/24 00:23:18;;;;;;;3.85;2.15;;;20.90;59.40;;;;;;5053168;28;20573;-65
2021/06/24 00:25:44;;;;;;;2.65;1.65;;;20.90;59.40;;;;;;5051936;28;20561;-64
2021/06/24 00:28:14;;;;;;;2.25;2.05;;;20.90;59.40;;;;;;5052689;28;20731;-64
2021/06/24 00:30:40;;;;;;;2.35;1.73;;;20.80;59.30;;;;;;5052618;28;20218;-64
2021/06/24 00:33:05;;;;;;;1.85;1.65;;;20.80;59.30;;;;;;5052233;28;20219;-65
2021/06/24 00:35:31;;;;;;;2.05;1.60;;;20.80;59.40;;;;;;5052624;28;20190;-66
2021/06/24 00:37:57;;;;;;;3.75;2.13;;;20.80;59.30;;;;;;5052748;28;20175;-65
2021/06/24 00:40:22;;;;;;;4.13;1.80;;;20.80;59.30;;;;;;5051805;28;20171;-65
2021/06/24 00:42:48;;;;;;;3.10;1.90;;;20.80;59.30;;;;;;5052190;28;20211;-66
2021/06/24 00:45:13;;;;;;;2.35;1.55;;;20.80;60.00;;;;;;5018339;28;20175;-65
2021/06/24 00:47:40;;;;;;;2.72;1.70;;;20.80;59.30;;;;;;5051309;28;20264;-65
2021/06/24 00:50:06;;;;;;;2.50;1.88;;;20.80;59.30;;;;;;5052549;28;20228;-64
2021/06/24 00:52:32;;;;;;;1.85;1.75;;;20.80;59.30;;;;;;5051538;28;20703;-65
2021/06/24 00:54:57;;;;;;;2.88;1.90;;;20.80;59.30;;;;;;5052099;28;20208;-65
2021/06/24 00:57:24;;;;;;;2.03;1.80;;;20.80;59.30;;;;;;5052118;28;20171;-65
2021/06/24 00:59:49;;;;;;;2.17;1.90;;;20.80;59.40;;;;;;5051310;28;20320;-65
2021/06/24 01:02:15;;;;;;;2.05;1.85;;;20.80;59.30;;;;;;5052036;28;20629;-65
2021/06/24 01:04:40;;;;;;;4.05;2.08;;;20.80;59.40;;;;;;5033916;28;20698;-65
2021/06/24 01:07:06;;;;;;;2.05;1.85;;;20.80;59.40;;;;;;5051261;28;20633;-65
2021/06/24 01:09:32;;;;;;;3.08;1.92;;;20.80;59.40;;;;;;5051914;28;20215;-65
2021/06/24 01:12:00;;;;;;;2.50;2.30;;;20.80;59.40;;;;;;5051981;28;20262;-65
2021/06/24 01:14:26;;;;;;;2.35;1.90;;;20.80;59.40;;;;;;5050046;28;20211;-65
2021/06/24 01:16:52;;;;;;;2.00;1.75;;;20.80;59.30;;;;;;5051426;28;20177;-65
2021/06/24 01:19:18;;;;;;;1.92;1.73;;;20.80;59.30;;;;;;5051765;28;20171;-64
2021/06/24 01:21:45;;;;;;;2.22;1.52;;;20.70;59.30;;;;;;5050652;28;20609;-64
2021/06/24 01:24:10;;;;;;;1.73;1.58;;;20.70;59.30;;;;;;5052050;28;20190;-64
2021/06/24 01:26:38;;;;;;;2.00;1.70;;;20.70;59.30;;;;;;5051423;28;20171;-64
2021/06/24 01:29:04;;;;;;;2.08;1.88;;;20.70;59.30;;;;;;5050583;28;20593;-64
2021/06/24 01:31:29;;;;;;;4.10;1.92;;;20.70;59.30;;;;;;5051821;28;20257;-64
2021/06/24 01:33:55;;;;;;;2.80;1.85;;;20.70;59.20;;;;;;5051355;28;20268;-65
2021/06/24 01:36:20;;;;;;;1.77;1.58;;;20.70;59.40;;;;;;5050956;28;20258;-65
2021/06/24 01:38:46;;;;;;;1.65;1.55;;;20.70;59.30;;;;;;5051237;28;20167;-65
2021/06/24 01:41:12;;;;;;;4.88;2.05;;;20.70;59.30;;;;;;5051230;28;20199;-65
2021/06/24 01:43:38;;;;;;;2.22;1.73;;;20.70;59.30;;;;;;5050401;28;20183;-65
2021/06/24 01:46:03;;;;;;;2.38;1.85;;;20.70;59.30;;;;;;5051496;28;20543;-66
2021/06/24 01:48:29;;;;;;;1.92;1.80;;;20.70;59.20;;;;;;5051361;28;20669;-64
2021/06/24 01:50:56;;;;;;;1.75;1.65;;;20.80;59.30;;;;;;5050787;28;20549;-64
2021/06/24 01:53:21;;;;;;;1.65;1.50;;;20.70;59.20;;;;;;5051083;28;20202;-64
2021/06/24 01:55:47;;;;;;;1.90;1.80;;;20.70;59.20;;;;;;5050909;28;20182;-64
2021/06/24 01:58:17;;;;;;;1.67;1.58;;;20.70;59.30;;;;;;5050658;28;20198;-64
2021/06/24 02:00:43;;;;;;;2.72;1.92;;;20.70;59.30;;;;;;5050948;28;20171;-65
2021/06/24 02:03:09;;;;;;;2.03;1.83;;;20.70;59.30;;;;;;5050724;28;20305;-65
2021/06/24 02:05:34;;;;;;;1.73;1.58;;;20.70;59.20;;;;;;5051057;28;20175;-64
2021/06/24 02:08:00;;;;;;;1.85;1.70;;;20.70;59.20;;;;;;5051247;28;20187;-65
2021/06/24 02:10:25;;;;;;;2.25;1.83;;;20.70;59.20;;;;;;5050449;28;20175;-65
2021/06/24 02:12:51;;;;;;;1.80;1.70;;;20.70;59.30;;;;;;5050838;28;20750;-65
2021/06/24 02:15:16;;;;;;;1.65;1.52;;;20.70;59.10;;;;;;5051074;28;20172;-65
2021/06/24 02:17:42;;;;;;;2.00;1.70;;;20.70;59.20;;;;;;5050034;28;20687;-65
2021/06/24 02:20:10;;;;;;;2.97;2.10;;;20.70;59.10;;;;;;5051337;28;20171;-64
2021/06/24 02:22:35;;;;;;;1.90;1.80;;;20.70;59.90;;;;;;5050785;28;20580;-65
2021/06/24 02:25:01;;;;;;;2.17;1.75;;;20.70;59.20;;;;;;5051745;28;20637;-64
2021/06/24 02:27:27;;;;;;;2.58;2.00;;;20.70;59.40;;;;;;5054548;28;20397;-64
2021/06/24 02:29:52;;;;;;;1.67;1.58;;;20.60;59.20;;;;;;5054800;28;20179;-64
2021/06/24 02:32:18;;;;;;;2.88;1.95;;;20.60;59.30;;;;;;5053927;28;20217;-64
2021/06/24 02:34:45;;;;;;;2.10;1.90;;;20.60;59.20;;;;;;5054425;28;20663;-66
2021/06/24 02:37:10;;;;;;;3.75;1.88;;;20.60;59.10;;;;;;5054718;28;20299;-66
2021/06/24 02:39:36;;;;;;;1.70;1.60;;;20.60;59.10;;;;;;5053687;28;20168;-66
2021/06/24 02:42:01;;;;;;;2.05;1.75;;;20.60;59.20;;;;;;5054421;28;20503;-67
2021/06/24 02:44:27;;;;;;;2.28;1.67;;;20.60;59.20;;;;;;5054427;28;20561;-67
2021/06/24 02:46:52;;;;;;;2.53;2.22;;;20.60;59.20;;;;;;5053408;28;20167;-65
2021/06/24 02:49:21;;;;;;;2.17;1.67;;;20.60;59.20;;;;;;5054298;28;20175;-64
2021/06/24 02:51:47;;;;;;;2.50;2.10;;;20.60;59.30;;;;;;5054022;28;20186;-65
2021/06/24 02:54:14;;;;;;;2.42;2.05;;;20.60;59.30;;;;;;5053571;28;20215;-65
2021/06/24 02:56:39;;;;;;;3.92;2.03;;;20.60;59.20;;;;;;5054030;28;20179;-65
2021/06/24 02:59:05;;;;;;;2.00;1.80;;;20.60;59.30;;;;;;5054249;28;20179;-65
2021/06/24 03:01:31;;;;;;;3.03;2.05;;;20.60;59.30;;;;;;5053123;28;20175;-65
2021/06/24 03:03:56;;;;;;;2.20;2.00;;;20.60;59.30;;;;;;5054232;28;20179;-65
2021/06/24 03:06:22;;;;;;;2.08;1.60;;;20.60;59.30;;;;;;5053503;28;20182;-65
2021/06/24 03:08:47;;;;;;;1.85;1.65;;;20.60;59.20;;;;;;5053908;28;20179;-65
2021/06/24 03:11:14;;;;;;;3.03;2.30;;;20.60;59.30;;;;;;5053969;28;20667;-65
2021/06/24 03:13:39;;;;;;;1.98;1.70;;;20.60;59.20;;;;;;5052989;28;20592;-65
2021/06/24 03:16:05;;;;;;;2.03;1.80;;;20.60;59.20;;;;;;5054155;28;20171;-65
2021/06/24 03:18:31;;;;;;;1.80;1.65;;;20.60;59.30;;;;;;5053642;28;20487;-64
2021/06/24 03:20:56;;;;;;;1.70;1.60;;;20.60;59.20;;;;;;5053272;28;20667;-64
2021/06/24 03:23:22;;;;;;;3.05;1.73;;;20.60;59.20;;;;;;5053786;28;20194;-64
2021/06/24 03:25:48;;;;;;;1.67;1.50;;;20.60;59.20;;;;;;5053443;28;20652;-64
2021/06/24 03:28:13;;;;;;;2.05;1.85;;;20.60;59.30;;;;;;5052987;28;20284;-64
2021/06/24 03:30:40;;;;;;;3.53;1.80;;;20.60;59.20;;;;;;5053474;28;20265;-64
2021/06/24 03:33:06;;;;;;;3.75;2.15;;;20.60;59.20;;;;;;5053464;28;20692;-64
2021/06/24 03:35:31;;;;;;;2.03;1.92;;;20.60;59.20;;;;;;5052681;28;20175;-65
2021/06/24 03:37:57;;;;;;;3.05;1.73;;;20.60;59.30;;;;;;5052778;28;20214;-66
2021/06/24 03:40:22;;;;;;;1.80;1.70;;;20.60;59.20;;;;;;5053823;28;20266;-66
2021/06/24 03:42:48;;;;;;;1.90;1.52;;;20.60;59.20;;;;;;5052692;28;20182;-65
2021/06/24 03:45:14;;;;;;;1.90;1.70;;;20.60;59.20;;;;;;5053337;28;20179;-65
2021/06/24 03:47:41;;;;;;;1.95;1.73;;;20.60;59.20;;;;;;5053065;28;20175;-66
2021/06/24 03:50:07;;;;;;;2.17;2.00;;;20.50;59.20;;;;;;5052900;28;20171;-65
2021/06/24 03:52:33;;;;;;;1.75;1.60;;;20.60;59.20;;;;;;5052681;28;20556;-65
2021/06/24 03:54:58;;;;;;;1.90;1.73;;;20.60;59.20;;;;;;5053175;28;20175;-65
2021/06/24 03:57:24;;;;;;;1.75;1.63;;;20.50;59.10;;;;;;5052389;28;20175;-65
2021/06/24 03:59:49;;;;;;;1.90;1.80;;;20.50;59.20;;;;;;5052950;28;20175;-65
2021/06/24 04:02:15;;;;;;;1.85;1.70;;;20.60;59.20;;;;;;5053078;28;20171;-65
2021/06/24 04:04:41;;;;;;;3.13;1.95;;;20.50;59.20;;;;;;5052178;28;20625;-65
2021/06/24 04:07:06;;;;;;;1.75;1.65;;;20.50;59.30;;;;;;5052959;28;20174;-65
2021/06/24 04:09:32;;;;;;;2.47;1.50;;;20.60;59.20;;;;;;5052222;28;20175;-65
2021/06/24 04:11:57;;;;;;;1.60;1.50;;;20.50;59.20;;;;;;5052797;28;20195;-65
2021/06/24 04:14:23;;;;;;;1.75;1.65;;;20.50;59.20;;;;;;5052788;28;20704;-65
2021/06/24 04:16:48;;;;;;;2.25;1.58;;;20.60;59.20;;;;;;5051851;28;20225;-65
2021/06/24 04:19:16;;;;;;;1.90;1.67;;;20.50;59.20;;;;;;5052733;28;20175;-65
2021/06/24 04:21:41;;;;;;;3.30;1.63;;;20.50;59.10;;;;;;5052377;28;20614;-64
2021/06/24 04:24:07;;;;;;;2.10;1.80;;;20.50;59.20;;;;;;5051819;28;20190;-64
2021/06/24 04:26:33;;;;;;;1.88;1.52;;;20.60;59.20;;;;;;5052650;28;20175;-64
2021/06/24 04:28:58;;;;;;;2.83;1.80;;;20.60;59.30;;;;;;5052444;28;20255;-64
2021/06/24 04:31:23;;;;;;;1.98;1.85;;;20.60;59.10;;;;;;5051710;28;20604;-64
2021/06/24 04:33:49;;;;;;;1.92;1.80;;;20.50;59.20;;;;;;5052154;28;20211;-65
2021/06/24 04:36:15;;;;;;;2.38;1.60;;;20.60;59.30;;;;;;5052287;28;20198;-65
2021/06/24 04:38:40;;;;;;;2.25;2.05;;;20.50;59.10;;;;;;5051617;28;20266;-66
2021/06/24 04:41:06;;;;;;;2.85;1.85;;;20.50;59.10;;;;;;5052387;28;20215;-65
2021/06/24 04:43:31;;;;;;;2.05;1.67;;;20.60;59.20;;;;;;5052050;28;20183;-66
2021/06/24 04:45:57;;;;;;;2.13;1.58;;;20.60;59.10;;;;;;5051531;28;20633;-65
2021/06/24 04:48:22;;;;;;;2.42;2.10;;;20.50;59.20;;;;;;5051378;28;20178;-65
2021/06/24 04:50:48;;;;;;;1.60;1.50;;;20.50;59.20;;;;;;5051833;28;20619;-65
2021/06/24 04:53:13;;;;;;;2.10;1.70;;;20.60;59.10;;;;;;5051264;28;20275;-65
2021/06/24 04:55:39;;;;;;;2.00;1.80;;;20.60;59.20;;;;;;5052091;28;20246;-65
2021/06/24 04:58:05;;;;;;;2.38;1.73;;;20.60;59.20;;;;;;5051982;28;20185;-65
2021/06/24 05:00:32;;;;;;;2.45;1.90;;;20.60;59.30;;;;;;5051114;28;20198;-65
2021/06/24 05:02:57;;;;;;;1.88;1.77;;;20.60;59.30;;;;;;5052069;28;20172;-65
2021/06/24 05:05:23;;;;;;;2.00;1.63;;;20.60;59.30;;;;;;5051807;28;20262;-64
2021/06/24 05:07:49;;;;;;;2.03;1.90;;;20.50;59.10;;;;;;5050888;28;20175;-66
2021/06/24 05:10:14;;;;;;;1.75;1.65;;;20.60;59.10;;;;;;5052127;28;20178;-66
2021/06/24 05:12:40;;;;;;;1.90;1.80;;;20.50;59.00;;;;;;5051554;28;20535;-66
2021/06/24 05:15:06;;;;;;;2.22;2.00;;;20.60;59.20;;;;;;5051044;28;20217;-66
2021/06/24 05:17:31;;;;;;;2.05;1.85;;;20.60;59.10;;;;;;5051549;28;20179;-67
2021/06/24 05:19:58;;;;;;;1.77;1.67;;;20.60;59.20;;;;;;5033317;28;20183;-65
2021/06/24 05:22:23;;;;;;;1.90;1.73;;;20.60;59.20;;;;;;5051637;28;20636;-65
2021/06/24 05:24:49;;;;;;;1.75;1.65;;;20.60;59.20;;;;;;5051634;28;20179;-64
2021/06/24 05:27:15;;;;;;;2.58;2.00;;;20.60;59.20;;;;;;5033182;28;20306;-65
2021/06/24 05:29:40;;;;;;;2.13;1.92;;;20.60;59.20;;;;;;5051442;28;20185;-65
2021/06/24 05:32:06;;;;;;;2.53;1.85;;;20.60;59.10;;;;;;5051638;28;20246;-65
2021/06/24 05:34:32;;;;;;;1.88;1.73;;;20.60;59.10;;;;;;5050548;28;20214;-66
2021/06/24 05:36:59;;;;;;;1.58;1.48;;;20.60;59.20;;;;;;5051501;28;20249;-67
2021/06/24 05:39:25;;;;;;;2.08;1.88;;;20.60;59.10;;;;;;5051459;28;20610;-66
2021/06/24 05:41:55;;;;;;;1.75;1.65;;;20.60;59.00;;;;;;5050712;28;20185;-66
2021/06/24 05:44:20;;;;;;;1.63;1.40;;;20.60;59.10;;;;;;5051675;28;20183;-66
2021/06/24 05:46:46;;;;;;;1.75;1.65;;;20.60;59.10;;;;;;5051158;28;20601;-66
2021/06/24 05:49:11;;;;;;;1.65;1.55;;;20.60;59.00;;;;;;5050738;28;20175;-66
2021/06/24 05:51:37;;;;;;;1.85;1.75;;;20.60;59.00;;;;;;5051308;28;20197;-66
2021/06/24 05:54:02;;;;;;;1.70;1.60;;;20.60;59.10;;;;;;5051274;28;20260;-65
2021/06/24 05:56:29;;;;;;;1.65;1.55;;;20.60;59.00;;;;;;5050861;28;20698;-66
2021/06/24 05:58:56;;;;;;;1.60;1.50;;;20.60;59.10;;;;;;5051603;28;20228;-66
2021/06/24 06:01:22;;;;;;;2.45;1.77;;;20.60;59.10;;;;;;5055027;28;20338;-66
2021/06/24 06:03:47;;;;;;;2.33;2.08;;;20.60;59.00;;;;;;5054350;28;20644;-66
2021/06/24 06:06:13;;;;;;;2.03;1.83;;;20.60;59.10;;;;;;5055244;28;20178;-65
2021/06/24 06:08:38;;;;;;;2.28;2.08;;;20.60;59.00;;;;;;5055196;28;20659;-65
2021/06/24 06:11:04;;;;;;;1.58;1.48;;;20.60;59.70;;;;;;5054474;28;20191;-65
2021/06/24 06:13:29;;;;;;;2.08;1.83;;;20.60;59.00;;;;;;5055014;28;20214;-65
2021/06/24 06:15:55;;;;;;;2.33;1.70;;;20.60;59.00;;;;;;5055255;28;20171;-65
2021/06/24 06:18:23;;;;;;;2.00;1.75;;;20.60;59.00;;;;;;5054415;28;20565;-65
2021/06/24 06:20:49;;;;;;;1.85;1.75;;;20.60;59.00;;;;;;5054884;28;20180;-64
2021/06/24 06:23:15;;;;;;;1.70;1.60;;;20.60;59.00;;;;;;5054143;28;20172;-65
2021/06/24 06:25:41;;;;;;;2.33;1.83;;;20.70;59.10;;;;;;5054633;28;20648;-64
2021/06/24 06:28:07;;;;;;;2.03;1.90;;;20.70;59.10;;;;;;5054835;28;20237;-64
2021/06/24 06:30:32;;;;;;;1.60;1.50;;;20.70;59.10;;;;;;5053897;28;20261;-65
2021/06/24 06:32:58;;;;;;;2.90;1.85;;;20.70;59.10;;;;;;5054548;28;20238;-66
2021/06/24 06:35:23;;;;;;;1.88;1.77;;;20.70;59.10;;;;;;5054637;28;20581;-66
2021/06/24 06:37:49;;;;;;;1.75;1.65;;;20.70;59.10;;;;;;5053848;28;20206;-66
2021/06/24 06:40:14;;;;;;;2.15;1.95;;;20.70;59.10;;;;;;5054763;28;20202;-66
2021/06/24 06:42:40;;;;;;;2.72;1.75;;;20.70;59.10;;;;;;5054315;28;20206;-66
2021/06/24 06:45:06;;;;;;;2.03;1.55;;;20.70;59.00;;;;;;5053843;28;20221;-66
2021/06/24 06:47:32;;;;;;;2.33;1.70;;;20.80;59.10;;;;;;5054242;28;20167;-66
2021/06/24 06:49:57;;;;;;;2.22;2.00;;;20.70;59.00;;;;;;5054586;28;20625;-65
2021/06/24 06:52:23;;;;;;;2.67;2.10;;;20.70;59.00;;;;;;5053637;28;20167;-66
2021/06/24 06:54:48;;;;;;;2.17;1.98;;;20.80;59.10;;;;;;5054159;28;20168;-66
2021/06/24 06:57:14;;;;;;;4.43;2.00;;;20.80;59.10;;;;;;5054378;28;20518;-65
2021/06/24 06:59:41;;;;;;;2.45;1.90;;;20.80;59.10;;;;;;5053332;28;20279;-66
2021/06/24 07:02:10;;;;;;;2.42;2.20;;;20.80;59.10;;;;;;5054212;28;20167;-61
2021/06/24 07:04:36;;;;;;;2.70;1.90;;;20.80;59.30;;;;;;5053865;28;20569;-63
2021/06/24 07:07:01;;;;;;;2.83;2.08;;;20.90;59.30;;;;;;5053221;28;20222;-63
2021/06/24 07:09:27;;;;;;;2.90;2.08;;;20.90;59.20;;;;;;5064338;28;20246;-62
2021/06/24 07:11:52;;;;;;;3.95;2.20;;;20.90;59.20;;;;;;5057749;28;20327;-63
2021/06/24 07:14:18;;;;;;;5.18;2.38;;;20.90;59.40;;;;;;5073269;28;20234;-63
2021/06/24 07:16:44;;;;;;;4.40;2.30;;;20.90;59.40;;;;;;5063459;28;20177;-63
2021/06/24 07:19:10;;;;;;;2.40;2.20;;;20.90;59.50;;;;;;5054065;28;20179;-63
2021/06/24 07:21:35;;;;;;;2.88;1.83;;;20.90;59.50;;;;;;5053049;28;20317;-63
2021/06/24 07:24:01;;;;;;;2.63;2.08;;;20.90;59.40;;;;;;5054165;28;20194;-63
2021/06/24 07:26:26;;;;;;;3.50;2.13;;;20.90;59.40;;;;;;5072808;28;20530;-62
2021/06/24 07:28:52;;;;;;;2.97;2.20;;;20.90;59.50;;;;;;5073379;28;20229;-62
2021/06/24 07:31:17;;;;;;;3.50;2.10;;;20.90;59.50;;;;;;5073646;28;20170;-63
2021/06/24 07:33:43;;;;;;;3.20;2.08;;;20.90;59.40;;;;;;5072790;28;20207;-63
2021/06/24 07:36:08;;;;;;;3.80;2.05;;;20.90;59.50;;;;;;5073978;28;20173;-64
2021/06/24 07:38:34;;;;;;;3.38;2.20;;;20.90;59.50;;;;;;5073315;28;20182;-64
2021/06/24 07:40:59;;;;;;;4.88;1.92;;;20.90;59.40;;;;;;5073024;28;20167;-64
2021/06/24 07:43:25;;;;;;;3.47;2.15;;;20.90;59.40;;;;;;5054501;28;20267;-64
2021/06/24 07:45:51;;;;;;;2.85;2.30;;;20.90;59.40;;;;;;5053358;28;20175;-64
2021/06/24 07:48:17;;;;;;;2.00;1.83;;;20.90;59.40;;;;;;5052881;28;20186;-63
2021/06/24 07:50:42;;;;;;;4.47;2.40;;;21.00;59.50;;;;;;5053211;28;20171;-63
2021/06/24 07:53:08;;;;;;;2.70;1.75;;;21.00;59.50;;;;;;5053450;28;20249;-63
2021/06/24 07:55:34;;;;;;;4.07;2.55;;;20.90;59.40;;;;;;5052427;28;20576;-63
2021/06/24 07:58:03;;;;;;;2.67;2.20;;;20.90;59.40;;;;;;5053365;28;20536;-63
2021/06/24 08:00:30;;;;;;;2.30;2.10;;;21.00;59.50;;;;;;5053151;28;20528;-63
2021/06/24 08:02:55;;;;;;;3.55;2.42;;;21.00;59.50;;;;;;5052587;28;20582;-63
2021/06/24 08:05:21;;;;;;;3.55;2.22;;;21.00;59.50;;;;;;5053469;28;20171;-63
2021/06/24 08:07:48;;;;;;;2.40;2.20;;;21.00;59.50;;;;;;5052540;28;20179;-63
2021/06/24 08:10:13;;;;;;;3.30;2.25;;;21.00;59.50;;;;;;5052334;28;20614;-64
2021/06/24 08:12:42;;;;;;;4.05;2.28;;;21.00;59.50;;;;;;5051999;28;20277;-64
2021/06/24 08:15:11;;;;;;;2.83;1.95;;;21.00;59.40;;;;;;5052679;28;20171;-64
2021/06/24 08:17:36;;;;;;;1.90;1.80;;;21.10;59.50;;;;;;5056298;28;20601;-63
2021/06/24 08:20:03;;;;;;;2.58;1.88;;;21.10;59.40;;;;;;5053070;28;20182;-63
2021/06/24 08:22:29;;;;;;;2.55;2.10;;;21.10;59.30;;;;;;5052366;28;20678;-63
2021/06/24 08:24:54;;;;;;;3.53;2.03;;;21.10;59.30;;;;;;5052134;28;20325;-63
2021/06/24 08:27:20;;;;;;;2.22;1.70;;;21.10;59.20;;;;;;5052613;28;20555;-64
2021/06/24 08:29:46;;;;;;;3.30;2.00;;;21.10;59.30;;;;;;5051337;28;20183;-63
2021/06/24 08:32:12;;;;;;;2.33;2.10;;;21.10;59.20;;;;;;5052787;28;20190;-64
2021/06/24 08:34:38;;;;;;;3.33;2.00;;;21.10;59.20;;;;;;5052278;28;20210;-64
2021/06/24 08:37:03;;;;;;;3.72;2.08;;;21.10;59.10;;;;;;5052266;28;20197;-62
2021/06/24 08:39:29;;;;;;;4.45;2.13;;;21.20;59.30;;;;;;5052542;28;20203;-62
2021/06/24 08:41:55;;;;;;;5.05;2.20;;;21.20;59.30;;;;;;5052425;28;20681;-62
2021/06/24 08:44:20;;;;;;;4.70;2.17;;;21.20;59.30;;;;;;5051519;28;20174;-62
2021/06/24 08:46:51;;;;;;;5.72;2.05;;;21.20;59.30;;;;;;5051965;28;20316;-62
2021/06/24 08:49:17;;;;;;;5.95;2.70;;;21.30;59.30;;;;;;5052284;28;20609;-62
2021/06/24 08:51:42;;;;;;;3.92;2.10;;;21.30;59.30;;;;;;5033289;28;20596;-62
2021/06/24 08:54:08;;;;;;;13.55;2.60;;;21.30;59.30;;;;;;5052176;28;20210;-61
2021/06/24 08:56:33;;;;;;;2.78;1.80;;;21.30;59.30;;;;;;5052030;28;20171;-62
2021/06/24 08:58:59;;;;;;;3.38;2.30;;;21.40;59.50;;;;;;5051315;28;20187;-62
2021/06/24 09:01:47;;;;;;;5.22;2.22;;;21.40;59.50;;;;;;5052379;28;20171;-63
2021/06/24 09:04:14;;;;;;;4.07;2.15;;;21.40;59.40;;;;;;5052234;28;20179;-62
2021/06/24 09:06:39;;;;;;;2.40;1.70;;;21.40;59.40;;;;;;5051094;28;20266;-64
2021/06/24 09:09:05;;;;;;;3.80;1.70;;;21.40;59.40;;;;;;5052143;28;20194;-65
2021/06/24 09:11:30;;;;;;;2.75;2.08;;;21.40;59.40;;;;;;5051571;28;20221;-64
2021/06/24 09:14:02;;;;;;;2.38;1.77;;;21.40;59.40;;;;;;5051314;28;20699;-65
2021/06/24 09:16:29;;;;;;;2.85;1.90;;;21.40;59.40;;;;;;5061572;28;20185;-65
2021/06/24 09:19:21;;;;;;;3.28;2.25;;;21.40;59.30;;;;;;5071665;28;20179;-64
2021/06/24 09:22:01;;;;;;;1.83;1.67;;;21.40;59.30;;;;;;5055330;28;20186;-64
2021/06/24 09:24:27;;;;;;;2.97;2.10;;;21.30;59.20;;;;;;5052013;28;20189;-64
2021/06/24 09:26:53;;;;;;;4.22;2.00;;;21.30;59.20;;;;;;5050740;28;20171;-63
2021/06/24 09:29:19;;;;;;;2.50;1.98;;;21.40;59.20;;;;;;5034067;28;20258;-64
2021/06/24 09:31:48;;;;;;;2.58;1.80;;;21.40;59.20;;;;;;5051347;28;20262;-64
2021/06/24 09:34:15;;;;;;;2.47;1.90;;;21.40;59.10;;;;;;5050293;28;20244;-65
2021/06/24 09:36:42;;;;;;;3.58;2.10;;;21.40;59.10;;;;;;5051217;28;20194;-65
2021/06/24 09:39:24;;;;;;;3.15;1.83;;;21.40;59.00;;;;;;5051565;28;20281;-65
2021/06/24 09:42:02;;;;;;;2.75;1.90;;;21.40;59.00;;;;;;5050741;28;20244;-65
2021/06/24 09:44:28;;;;;;;1.98;1.80;;;21.40;59.00;;;;;;5051435;28;20181;-65
2021/06/24 09:46:54;;;;;;;2.40;2.00;;;21.40;58.90;;;;;;5051183;28;20253;-65
2021/06/24 09:49:26;;;;;;;2.65;1.83;;;21.40;58.90;;;;;;5033104;28;20309;-65
2021/06/24 09:51:53;;;;;;;3.47;2.00;;;21.40;58.90;;;;;;5051371;28;20549;-64
2021/06/24 09:54:18;;;;;;;2.35;2.17;;;21.40;58.90;;;;;;5050855;28;20215;-63
2021/06/24 09:56:49;;;;;;;2.75;2.55;;;21.40;58.80;;;;;;5051268;28;20175;-64
2021/06/24 09:59:15;;;;;;;2.65;2.03;;;21.30;58.80;;;;;;5051268;28;20232;-63
2021/06/24 10:01:45;;;;;;;3.15;2.28;;;21.30;58.90;;;;;;5050189;28;20262;-64
2021/06/24 10:04:20;;;;;;;4.78;2.40;;;21.40;58.90;;;;;;5051463;28;20202;-61
2021/06/24 10:06:47;;;;;;;6.07;2.67;;;21.40;58.80;;;;;;5050954;28;20189;-61
2021/06/24 10:09:12;;;;;;;3.03;2.08;;;21.40;58.90;;;;;;5050531;28;20172;-65
2021/06/24 10:11:38;;;;;;;2.47;2.10;;;21.40;58.80;;;;;;5050940;28;20197;-65
2021/06/24 10:14:05;;;;;;;3.58;2.10;;;21.40;59.00;;;;;;5050997;28;20214;-65
2021/06/24 10:16:30;;;;;;;3.53;2.03;;;21.40;59.00;;;;;;5060201;28;20178;-65
2021/06/24 10:18:57;;;;;;;2.00;1.90;;;21.40;59.00;;;;;;5053476;28;20175;-64
2021/06/24 10:21:23;;;;;;;5.22;2.60;;;21.40;59.00;;;;;;5058172;28;20237;-65
2021/06/24 10:23:55;;;;;;;4.25;1.98;;;21.30;58.90;;;;;;5050165;28;20186;-64
2021/06/24 10:26:21;;;;;;;3.63;2.35;;;21.40;58.90;;;;;;5033958;28;20270;-63
2021/06/24 10:28:46;;;;;;;2.92;2.00;;;21.40;58.90;;;;;;5032767;28;20314;-64
2021/06/24 10:31:35;;;;;;;3.85;2.00;;;21.40;59.00;;;;;;5032738;28;20193;-65
2021/06/24 10:34:03;;;;;;;2.75;2.55;;;21.30;58.90;;;;;;5050966;28;20214;-61
2021/06/24 10:36:28;;;;;;;4.43;2.20;;;21.40;58.90;;;;;;5050610;28;20198;-62
2021/06/24 10:38:56;;;;;;;1.83;1.58;;;21.40;58.80;;;;;;5050713;28;20199;-62
2021/06/24 10:41:21;;;;;;;3.35;2.00;;;21.40;58.80;;;;;;5051128;28;20618;-63
2021/06/24 10:43:49;;;;;;;3.22;2.13;;;21.40;58.80;;;;;;5049890;28;20229;-62
2021/06/24 10:46:20;;;;;;;4.68;2.15;;;21.30;58.80;;;;;;5052634;28;20179;-61
2021/06/24 10:48:46;;;;;;;2.33;2.13;;;21.40;58.90;;;;;;5054306;28;20202;-61
2021/06/24 10:51:12;;;;;;;2.28;2.08;;;21.30;58.90;;;;;;5053711;28;20175;-61
2021/06/24 10:53:48;;;;;;;3.80;2.00;;;21.30;58.90;;;;;;5054268;28;20207;-61
2021/06/24 10:56:30;;;;;;;2.45;2.00;;;21.40;59.00;;;;;;5054539;28;20181;-61
2021/06/24 10:58:57;;;;;;;3.90;1.98;;;21.30;58.90;;;;;;5053577;28;20282;-61
2021/06/24 11:01:40;;;;;;;2.30;1.80;;;21.40;59.00;;;;;;5054397;28;20175;-62
2021/06/24 11:04:05;;;;;;;3.45;2.00;;;21.40;58.90;;;;;;5054613;28;20175;-61
2021/06/24 11:06:41;;;;;;;2.25;2.00;;;21.40;58.90;;;;;;5035339;28;20190;-61
2021/06/24 11:09:13;;;;;;;3.53;1.88;;;21.40;58.90;;;;;;5037185;28;20186;-61
2021/06/24 11:11:42;;;;;;;2.58;2.15;;;21.40;58.90;;;;;;5053151;28;20665;-61
2021/06/24 11:14:08;;;;;;;3.80;2.00;;;21.40;58.90;;;;;;5054125;28;20264;-61
2021/06/24 11:16:35;;;;;;;3.13;1.90;;;21.50;58.90;;;;;;5064273;28;20536;-61
2021/06/24 11:19:01;;;;;;;2.05;1.83;;;21.40;58.90;;;;;;5073504;28;20190;-62
2021/06/24 11:21:30;;;;;;;2.08;1.83;;;21.40;58.90;;;;;;5060454;28;20171;-61
2021/06/24 11:24:00;;;;;;;2.33;1.90;;;21.40;58.90;;;;;;5053906;28;20606;-61
2021/06/24 11:26:25;;;;;;;2.25;2.03;;;21.40;58.90;;;;;;5053271;28;20194;-60
2021/06/24 11:28:55;;;;;;;2.17;1.95;;;21.40;59.00;;;;;;5053310;28;20708;-61
2021/06/24 11:31:54;;;;;;;2.85;2.13;;;21.40;59.00;;;;;;5054241;28;20532;-64
2021/06/24 11:37:05;;;;;;;3.30;2.10;;;21.40;59.10;;;;;;5053843;28;20241;-67
2021/06/24 11:39:36;;;;;;;3.10;1.60;;;21.30;59.00;;;;;;5053325;28;20179;-62
2021/06/24 11:42:29;;;;;;;2.05;1.88;;;21.30;59.00;;;;;;5053393;28;20199;-62
2021/06/24 11:44:56;;;;;;;4.47;2.08;;;21.40;58.90;;;;;;5053532;28;20625;-64
2021/06/24 11:47:25;;;;;;;3.72;2.28;;;21.40;58.90;;;;;;5052650;28;20175;-64
2021/06/24 12:00:27;;;;;;;2.67;2.25;;;21.40;58.90;;;;;;5053244;28;20175;-63
2021/06/24 12:04:03;;;;;;;4.55;2.20;;;21.40;58.80;;;;;;5053253;28;20171;-64
2021/06/24 12:06:50;;;;;;;2.17;2.00;;;21.40;58.80;;;;;;5053134;28;20183;-64
2021/06/24 12:09:20;;;;;;;1.98;1.83;;;21.30;58.70;;;;;;5052549;28;20257;-64
2021/06/24 12:11:46;;;;;;;2.47;2.25;;;21.30;58.70;;;;;;5052984;28;20183;-64
2021/06/24 12:14:23;;;;;;;2.90;2.20;;;21.30;58.70;;;;;;5051539;28;20723;-64
2021/06/24 12:17:19;;;;;;;2.35;2.20;;;21.30;58.70;;;;;;5064517;28;20724;-64
2021/06/24 12:19:51;;;;;;;3.17;2.15;;;21.30;58.80;;;;;;5072834;28;20249;-64
2021/06/24 12:22:37;;;;;;;5.20;2.40;;;21.30;58.70;;;;;;5032161;28;20647;-64
2021/06/24 12:25:05;;;;;;;2.63;1.90;;;21.30;58.80;;;;;;5032881;28;20193;-64
2021/06/24 12:27:46;;;;;;;3.17;2.30;;;21.30;58.80;;;;;;5032282;28;20293;-63
2021/06/24 12:30:18;;;;;;;4.30;2.42;;;21.20;58.70;;;;;;5032226;28;20238;-64
2021/06/24 12:32:53;;;;;;;2.42;2.22;;;21.30;58.70;;;;;;5032435;28;20175;-64
2021/06/24 12:35:39;;;;;;;2.47;2.28;;;21.30;58.70;;;;;;5032751;28;20187;-64
2021/06/24 12:38:05;;;;;;;2.42;2.08;;;21.30;58.70;;;;;;5032227;28;20362;-65
2021/06/24 12:40:33;;;;;;;3.38;2.13;;;21.20;58.70;;;;;;5032446;28;20294;-65
2021/06/24 12:42:59;;;;;;;2.75;2.30;;;21.20;58.70;;;;;;5031919;28;20227;-64
2021/06/24 12:45:27;;;;;;;2.78;2.22;;;21.20;58.70;;;;;;5032619;28;20230;-64
2021/06/24 12:47:52;;;;;;;2.70;2.50;;;21.20;58.70;;;;;;5032138;28;20187;-64
2021/06/24 12:50:21;;;;;;;2.92;2.10;;;21.20;58.70;;;;;;5031586;28;20176;-64
2021/06/24 12:52:46;;;;;;;2.83;2.33;;;21.20;58.70;;;;;;5031839;28;20184;-64
2021/06/24 12:55:40;;;;;;;2.63;2.28;;;21.20;58.70;;;;;;5032201;28;20541;-64
2021/06/24 12:58:37;;;;;;;2.30;2.15;;;21.20;58.70;;;;;;5031404;28;20183;-64
2021/06/24 13:01:13;;;;;;;2.60;2.40;;;21.20;58.70;;;;;;5015035;28;20184;-63
2021/06/24 13:03:55;;;;;;;2.13;1.90;;;21.20;58.70;;;;;;5032195;28;20176;-63